createdAt,value
2023-08-11T00:01:47.609Z,18.77
2023-08-11T00:04:20.148Z,18.77
2023-08-11T00:06:49.497Z,18.74
2023-08-11T00:09:19.041Z,18.70
2023-08-11T00:11:48.711Z,18.76
2023-08-11T00:14:18.266Z,18.77
2023-08-11T00:16:47.827Z,18.74
2023-08-11T00:19:20.086Z,18.69
2023-08-11T00:21:49.691Z,18.71
2023-08-11T00:24:19.870Z,18.70
2023-08-11T00:26:49.431Z,18.69
2023-08-11T00:29:19.080Z,18.71
2023-08-11T00:31:49.455Z,18.72
2023-08-11T00:34:21.856Z,18.64
2023-08-11T00:36:51.468Z,18.69
2023-08-11T00:39:21.061Z,18.72
2023-08-11T00:41:51.382Z,18.71
2023-08-11T00:44:20.984Z,18.69
2023-08-11T00:46:51.207Z,18.64
2023-08-11T00:49:23.539Z,18.66
2023-08-11T00:51:54.223Z,18.68
2023-08-11T00:54:25.475Z,18.73
2023-08-11T00:56:55.397Z,18.67
2023-08-11T00:59:25.334Z,18.52
2023-08-11T01:01:55.251Z,18.54
2023-08-11T01:04:27.443Z,18.50
2023-08-11T01:07:18.629Z,18.49
2023-08-11T01:09:55.500Z,18.56
2023-08-11T01:12:33.282Z,18.70
2023-08-11T01:15:14.366Z,18.63
2023-08-11T01:17:45.254Z,18.66
2023-08-11T01:20:19.741Z,18.64
2023-08-11T01:22:53.589Z,18.64
2023-08-11T01:25:27.121Z,18.64
2023-08-11T01:27:58.964Z,18.59
2023-08-11T01:30:31.515Z,18.62
2023-08-11T01:33:01.494Z,18.66
2023-08-11T01:35:40.913Z,18.65
2023-08-11T01:38:10.158Z,18.63
2023-08-11T01:40:43.105Z,18.53
2023-08-11T01:43:15.423Z,18.56
2023-08-11T01:45:46.310Z,18.59
2023-08-11T01:48:18.170Z,18.62
2023-08-11T01:50:48.261Z,18.61
2023-08-11T01:53:18.190Z,18.58
2023-08-11T01:55:51.773Z,18.54
2023-08-11T01:58:21.356Z,18.46
2023-08-11T02:00:50.963Z,18.44
2023-08-11T02:03:21.850Z,18.43
2023-08-11T02:05:51.555Z,18.48
2023-08-11T02:08:22.310Z,18.49
2023-08-11T02:10:54.740Z,18.48
2023-08-11T02:13:24.361Z,18.45
2023-08-11T02:15:54.470Z,18.39
2023-08-11T02:18:24.105Z,18.42
2023-08-11T02:20:53.702Z,18.43
2023-08-11T02:23:23.262Z,18.43
2023-08-11T02:25:55.674Z,18.30
2023-08-11T02:28:25.522Z,18.34
2023-08-11T02:30:55.354Z,18.38
2023-08-11T02:33:24.959Z,18.41
2023-08-11T02:35:55.249Z,18.36
2023-08-11T02:38:24.782Z,18.39
2023-08-11T02:40:56.946Z,18.46
2023-08-11T02:43:26.630Z,18.46
2023-08-11T02:45:56.474Z,18.44
2023-08-11T02:48:26.150Z,18.47
2023-08-11T02:50:55.744Z,18.48
2023-08-11T02:53:25.306Z,18.52
2023-08-11T02:55:57.503Z,18.48
2023-08-11T02:58:27.365Z,18.42
2023-08-11T03:00:59.238Z,18.40
2023-08-11T03:03:30.019Z,18.41
2023-08-11T03:05:59.760Z,18.34
2023-08-11T03:08:29.525Z,18.34
2023-08-11T03:11:01.931Z,18.24
2023-08-11T03:13:37.056Z,18.32
2023-08-11T03:16:07.476Z,18.26
2023-08-11T03:18:37.535Z,18.27
2023-08-11T03:21:18.535Z,18.26
2023-08-11T03:23:49.887Z,18.28
2023-08-11T03:26:22.585Z,18.29
2023-08-11T03:28:52.213Z,18.30
2023-08-11T03:31:22.296Z,18.29
2023-08-11T03:33:54.271Z,18.22
2023-08-11T03:36:24.016Z,18.25
2023-08-11T03:38:53.664Z,18.29
2023-08-11T03:41:26.113Z,18.33
2023-08-11T03:43:55.832Z,18.29
2023-08-11T03:46:26.278Z,18.20
2023-08-11T03:48:56.463Z,18.17
2023-08-11T03:51:26.092Z,18.13
2023-08-11T03:53:55.689Z,18.14
2023-08-11T03:56:29.116Z,18.19
2023-08-11T03:58:58.563Z,18.19
2023-08-11T04:01:29.358Z,18.17
2023-08-11T04:03:58.987Z,18.14
2023-08-11T04:06:33.857Z,18.15
2023-08-11T04:09:05.315Z,18.09
2023-08-11T04:11:37.494Z,17.97
2023-08-11T04:14:07.195Z,17.91
2023-08-11T04:16:36.931Z,17.96
2023-08-11T04:19:06.982Z,17.90
2023-08-11T04:21:36.580Z,17.86
2023-08-11T04:24:06.844Z,17.92
2023-08-11T04:26:39.576Z,17.90
2023-08-11T04:29:10.348Z,17.87
2023-08-11T04:31:41.366Z,17.81
2023-08-11T04:34:11.752Z,17.79
2023-08-11T04:36:41.431Z,17.83
2023-08-11T04:39:11.739Z,17.80
2023-08-11T04:41:44.105Z,17.76
2023-08-11T04:44:13.696Z,17.77
2023-08-11T04:46:43.361Z,17.70
2023-08-11T04:49:13.887Z,17.69
2023-08-11T04:51:43.498Z,17.66
2023-08-11T04:54:13.092Z,17.68
2023-08-11T04:56:45.648Z,17.63
2023-08-11T04:59:15.126Z,17.55
2023-08-11T05:01:44.764Z,17.58
2023-08-11T05:04:14.373Z,17.54
2023-08-11T05:06:43.952Z,17.56
2023-08-11T05:09:13.563Z,17.53
2023-08-11T05:11:45.697Z,17.56
2023-08-11T05:14:17.065Z,17.55
2023-08-11T05:16:46.625Z,17.54
2023-08-11T05:19:16.600Z,17.57
2023-08-11T05:21:46.140Z,17.55
2023-08-11T05:24:15.852Z,17.57
2023-08-11T05:26:48.528Z,17.58
2023-08-11T05:29:18.077Z,17.61
2023-08-11T05:31:47.633Z,17.66
2023-08-11T05:34:17.176Z,17.69
2023-08-11T05:36:46.957Z,17.70
2023-08-11T05:39:16.613Z,17.70
2023-08-11T05:41:48.831Z,17.69
2023-08-11T05:44:18.385Z,17.72
2023-08-11T05:46:47.942Z,17.75
2023-08-11T05:49:17.580Z,17.80
2023-08-11T05:51:47.125Z,17.83
2023-08-11T05:54:16.712Z,17.88
2023-08-11T05:56:48.860Z,17.89
2023-08-11T05:59:18.408Z,17.97
2023-08-11T06:01:48.214Z,18.01
2023-08-11T06:04:17.845Z,17.97
2023-08-11T06:06:47.477Z,18.01
2023-08-11T06:09:17.082Z,18.03
2023-08-11T06:11:49.241Z,18.08
2023-08-11T06:14:18.867Z,18.08
2023-08-11T06:16:48.721Z,18.05
2023-08-11T06:19:18.302Z,18.03
2023-08-11T06:21:48.600Z,18.00
2023-08-11T06:24:18.227Z,17.97
2023-08-11T06:26:50.407Z,18.01
2023-08-11T06:29:20.161Z,18.08
2023-08-11T06:31:50.342Z,18.19
2023-08-11T06:34:21.737Z,18.17
2023-08-11T06:36:51.457Z,18.22
2023-08-11T06:39:21.019Z,18.24
2023-08-11T06:41:53.237Z,18.27
2023-08-11T06:44:42.798Z,18.30
2023-08-11T06:47:12.383Z,18.42
2023-08-11T06:49:41.926Z,18.42
2023-08-11T06:52:12.874Z,18.51
2023-08-11T06:54:43.122Z,18.56
2023-08-11T06:57:15.525Z,18.62
2023-08-11T06:59:45.113Z,18.64
2023-08-11T07:02:14.717Z,18.65
2023-08-11T07:04:44.396Z,18.70
2023-08-11T07:07:14.056Z,18.71
2023-08-11T07:09:43.765Z,18.73
2023-08-11T07:12:16.137Z,18.77
2023-08-11T07:14:46.094Z,18.80
2023-08-11T07:17:15.717Z,18.88
2023-08-11T07:19:45.594Z,18.95
2023-08-11T07:22:15.212Z,18.94
2023-08-11T07:24:44.786Z,19.01
2023-08-11T07:27:19.315Z,19.04
2023-08-11T07:29:49.258Z,19.06
2023-08-11T07:32:18.897Z,19.08
2023-08-11T07:34:48.539Z,19.13
2023-08-11T07:37:18.144Z,19.16
2023-08-11T07:39:47.723Z,19.20
2023-08-11T07:42:19.895Z,19.25
2023-08-11T07:44:49.464Z,19.25
2023-08-11T07:47:19.038Z,19.30
2023-08-11T07:49:48.617Z,19.35
2023-08-11T07:52:18.824Z,19.38
2023-08-11T07:54:48.476Z,19.48
2023-08-11T07:57:20.796Z,19.51
2023-08-11T07:59:50.412Z,19.47
2023-08-11T08:02:20.083Z,19.45
2023-08-11T08:04:49.671Z,19.67
2023-08-11T08:07:19.257Z,19.62
2023-08-11T08:09:48.993Z,19.60
2023-08-11T08:12:21.138Z,19.61
2023-08-11T08:14:50.767Z,19.61
2023-08-11T08:17:20.657Z,19.57
2023-08-11T08:19:51.161Z,19.61
2023-08-11T08:22:20.904Z,19.62
2023-08-11T08:24:51.030Z,19.63
2023-08-11T08:27:25.674Z,19.69
2023-08-11T08:29:56.045Z,19.71
2023-08-11T08:32:25.702Z,19.77
2023-08-11T08:34:55.448Z,19.78
2023-08-11T08:37:26.042Z,19.81
2023-08-11T08:39:56.521Z,19.79
2023-08-11T08:42:29.695Z,19.87
2023-08-11T08:45:00.770Z,19.99
2023-08-11T08:47:30.911Z,20.07
2023-08-11T08:50:03.191Z,19.96
2023-08-11T08:52:34.025Z,19.94
2023-08-11T08:55:04.764Z,19.97
2023-08-11T08:57:37.680Z,20.01
2023-08-11T09:00:09.237Z,19.98
2023-08-11T09:02:39.405Z,19.94
2023-08-11T09:05:10.823Z,19.92
2023-08-11T09:07:40.403Z,19.94
2023-08-11T09:10:11.670Z,19.95
2023-08-11T09:12:46.116Z,19.94
2023-08-11T09:15:16.821Z,19.96
2023-08-11T09:17:46.518Z,20.01
2023-08-11T09:20:20.956Z,19.98
2023-08-11T09:22:50.635Z,20.00
2023-08-11T09:25:20.323Z,20.06
2023-08-11T09:27:55.489Z,20.12
2023-08-11T09:30:25.062Z,20.11
2023-08-11T09:32:54.829Z,20.09
2023-08-11T09:35:27.689Z,20.17
2023-08-11T09:37:57.543Z,20.31
2023-08-11T09:40:27.140Z,20.30
2023-08-11T09:43:00.452Z,20.20
2023-08-11T09:45:34.512Z,20.19
2023-08-11T09:48:04.100Z,20.27
2023-08-11T09:50:37.770Z,20.31
2023-08-11T09:53:09.148Z,20.26
2023-08-11T09:55:41.322Z,20.34
2023-08-11T09:58:16.336Z,20.34
2023-08-11T10:00:47.266Z,20.31
2023-08-11T10:03:26.908Z,20.62
2023-08-11T10:05:58.890Z,20.50
2023-08-11T10:08:31.121Z,20.49
2023-08-11T10:11:04.623Z,20.50
2023-08-11T10:13:37.618Z,20.48
2023-08-11T10:16:08.521Z,20.48
2023-08-11T10:18:39.792Z,20.81
2023-08-11T10:21:09.598Z,20.66
2023-08-11T10:23:40.425Z,20.77
2023-08-11T10:26:15.724Z,20.70
2023-08-11T10:28:48.790Z,20.64
2023-08-11T10:31:18.418Z,20.75
2023-08-11T10:33:52.996Z,20.81
2023-08-11T10:36:25.807Z,20.78
2023-08-11T10:39:04.825Z,20.76
2023-08-11T10:41:34.821Z,20.82
2023-08-11T10:44:08.664Z,21.07
2023-08-11T10:46:39.709Z,21.05
2023-08-11T10:49:23.769Z,20.98
2023-08-11T10:51:55.222Z,21.07
2023-08-11T10:54:27.786Z,21.12
2023-08-11T10:56:57.657Z,21.13
2023-08-11T10:59:32.215Z,21.12
2023-08-11T11:02:04.684Z,21.24
2023-08-11T11:04:35.083Z,21.23
2023-08-11T11:07:08.607Z,21.22
2023-08-11T11:09:38.311Z,21.28
2023-08-11T11:12:09.885Z,21.33
2023-08-11T11:14:42.413Z,21.35
2023-08-11T11:19:59.205Z,21.42
2023-08-11T11:22:32.836Z,21.53
2023-08-11T11:25:04.268Z,21.56
2023-08-11T11:27:33.848Z,21.60
2023-08-11T11:30:06.482Z,21.66
2023-08-11T11:32:36.197Z,21.70
2023-08-11T11:35:06.792Z,21.82
2023-08-11T11:37:37.268Z,21.89
2023-08-11T11:40:10.661Z,21.95
2023-08-11T11:42:40.328Z,22.01
2023-08-11T11:45:21.869Z,22.08
2023-08-11T11:47:54.631Z,22.07
2023-08-11T11:50:27.010Z,22.09
2023-08-11T11:52:57.346Z,22.26
2023-08-11T11:55:27.781Z,22.37
2023-08-11T11:57:59.718Z,22.38
2023-08-11T12:00:35.652Z,22.33
2023-08-11T12:05:48.051Z,22.34
2023-08-11T12:08:22.347Z,22.50
2023-08-11T12:10:53.933Z,22.53
2023-08-11T12:13:23.807Z,22.58
2023-08-11T12:15:56.081Z,22.60
2023-08-11T12:18:25.693Z,22.66
2023-08-11T12:20:55.273Z,22.72
2023-08-11T12:23:24.832Z,22.87
2023-08-11T12:25:54.532Z,22.99
2023-08-11T12:28:24.342Z,23.00
2023-08-11T12:30:56.592Z,23.01
2023-08-11T12:33:26.784Z,23.05
2023-08-11T12:35:56.435Z,23.23
2023-08-11T12:38:26.211Z,23.16
2023-08-11T12:40:55.792Z,23.27
2023-08-11T12:43:25.374Z,23.33
2023-08-11T12:45:57.624Z,23.37
2023-08-11T12:48:27.172Z,23.40
2023-08-11T12:50:56.734Z,23.49
2023-08-11T12:53:26.265Z,23.58
2023-08-11T12:55:55.850Z,23.71
2023-08-11T12:58:25.445Z,23.68
2023-08-11T13:00:57.653Z,23.87
2023-08-11T13:03:27.373Z,23.85
2023-08-11T13:05:56.945Z,23.93
2023-08-11T13:08:26.505Z,23.87
2023-08-11T13:10:56.329Z,23.95
2023-08-11T13:13:25.890Z,23.97
2023-08-11T13:15:58.065Z,24.19
2023-08-11T13:18:27.748Z,24.19
2023-08-11T13:20:57.473Z,24.23
2023-08-11T13:23:30.213Z,24.25
2023-08-11T13:26:01.059Z,24.29
2023-08-11T13:28:35.011Z,24.32
2023-08-11T13:31:07.423Z,24.63
2023-08-11T13:33:36.838Z,24.56
2023-08-11T13:36:06.880Z,24.59
2023-08-11T13:38:36.413Z,24.72
2023-08-11T13:43:44.849Z,24.66
2023-08-11T13:46:17.829Z,24.69
2023-08-11T13:48:47.435Z,24.70
2023-08-11T13:51:17.023Z,24.78
2023-08-11T13:53:49.314Z,24.86
2023-08-11T13:56:18.856Z,24.95
2023-08-11T13:58:48.441Z,24.95
2023-08-11T14:01:20.574Z,24.99
2023-08-11T14:03:50.196Z,25.05
2023-08-11T14:06:19.760Z,25.15
2023-08-11T14:08:49.352Z,25.18
2023-08-11T14:11:24.211Z,25.51
2023-08-11T14:13:54.269Z,25.30
2023-08-11T14:16:26.426Z,25.26
2023-08-11T14:18:57.022Z,25.26
2023-08-11T14:21:26.784Z,25.32
2023-08-11T14:23:56.375Z,25.38
2023-08-11T14:26:25.948Z,25.47
2023-08-11T14:28:55.510Z,25.39
2023-08-11T14:31:27.743Z,25.45
2023-08-11T14:33:57.426Z,25.44
2023-08-11T14:36:27.162Z,25.48
2023-08-11T14:38:56.860Z,25.45
2023-08-11T14:41:26.457Z,25.43
2023-08-11T14:43:56.022Z,25.45
2023-08-11T14:46:28.341Z,25.51
2023-08-11T14:48:57.726Z,25.52
2023-08-11T14:51:27.296Z,25.62
2023-08-11T14:53:56.840Z,25.58
2023-08-11T14:56:27.658Z,25.70
2023-08-11T14:58:57.431Z,25.58
2023-08-11T15:01:29.688Z,25.64
2023-08-11T15:03:59.105Z,25.57
2023-08-11T15:06:28.652Z,25.49
2023-08-11T15:08:58.193Z,25.52
2023-08-11T15:11:27.868Z,25.59
2023-08-11T15:13:57.593Z,25.56
2023-08-11T15:16:29.972Z,25.52
2023-08-11T15:18:59.774Z,25.46
2023-08-11T15:21:29.536Z,25.44
2023-08-11T15:23:59.301Z,25.42
2023-08-11T15:26:29.394Z,25.40
2023-08-11T15:29:00.851Z,25.53
2023-08-11T15:31:36.007Z,25.51
2023-08-11T15:34:07.061Z,25.60
2023-08-11T15:36:36.922Z,25.58
2023-08-11T15:39:08.070Z,25.53
2023-08-11T15:41:37.730Z,25.49
2023-08-11T15:44:07.817Z,25.57
2023-08-11T15:46:40.234Z,25.53
2023-08-11T15:49:09.907Z,25.48
2023-08-11T15:51:39.569Z,25.48
2023-08-11T15:54:09.273Z,25.53
2023-08-11T15:56:38.929Z,25.58
2023-08-11T15:59:09.225Z,25.52
2023-08-11T16:01:45.827Z,25.48
2023-08-11T16:04:22.290Z,25.51
2023-08-11T16:06:52.260Z,25.50
2023-08-11T16:09:22.223Z,25.52
2023-08-11T16:11:53.966Z,25.50
2023-08-11T16:17:05.716Z,25.49
2023-08-11T16:19:36.213Z,25.51
2023-08-11T16:22:05.802Z,25.58
2023-08-11T16:24:35.506Z,25.57
2023-08-11T16:27:05.106Z,25.51
2023-08-11T16:29:39.492Z,25.63
2023-08-11T16:32:12.069Z,25.52
2023-08-11T16:34:41.951Z,25.51
2023-08-11T16:37:11.469Z,25.42
2023-08-11T16:39:41.567Z,25.42
2023-08-11T16:42:11.360Z,25.42
2023-08-11T16:44:42.698Z,25.41
2023-08-11T16:47:14.873Z,25.42
2023-08-11T16:49:44.460Z,25.32
2023-08-11T16:52:14.289Z,25.30
2023-08-11T16:54:43.861Z,25.28
2023-08-11T16:57:14.160Z,25.27
2023-08-11T16:59:43.734Z,25.29
2023-08-11T17:02:15.932Z,25.32
2023-08-11T17:04:45.349Z,25.28
2023-08-11T17:07:14.906Z,25.25
2023-08-11T17:09:44.478Z,25.26
2023-08-11T17:12:14.453Z,25.20
2023-08-11T17:14:44.262Z,25.23
2023-08-11T17:17:16.418Z,25.16
2023-08-11T17:19:45.992Z,25.14
2023-08-11T17:22:15.760Z,25.13
2023-08-11T17:24:45.317Z,25.12
2023-08-11T17:27:14.923Z,25.10
2023-08-11T17:29:46.125Z,25.08
2023-08-11T17:32:18.406Z,25.08
2023-08-11T17:37:23.978Z,25.06
2023-08-11T17:39:54.121Z,25.05
2023-08-11T17:42:23.825Z,25.02
2023-08-11T17:44:53.378Z,25.00
2023-08-11T17:47:25.526Z,24.98
2023-08-11T17:49:55.146Z,24.96
2023-08-11T17:52:24.688Z,24.97
2023-08-11T17:54:54.422Z,24.96
2023-08-11T17:57:24.097Z,24.92
2023-08-11T17:59:53.893Z,24.91
2023-08-11T18:02:26.159Z,24.89
2023-08-11T18:04:55.612Z,24.86
2023-08-11T18:07:25.209Z,24.85
2023-08-11T18:09:54.975Z,24.84
2023-08-11T18:12:27.417Z,24.83
2023-08-11T18:14:58.612Z,24.83
2023-08-11T18:17:30.770Z,24.82
2023-08-11T18:20:00.351Z,24.79
2023-08-11T18:22:33.782Z,24.76
2023-08-11T18:25:04.973Z,24.72
2023-08-11T18:27:34.728Z,24.71
2023-08-11T18:30:05.225Z,24.68
2023-08-11T18:32:37.386Z,24.67
2023-08-11T18:35:08.070Z,24.66
2023-08-11T18:37:37.625Z,24.65
2023-08-11T18:40:08.494Z,24.62
2023-08-11T18:42:38.138Z,24.61
2023-08-11T18:45:09.133Z,24.58
2023-08-11T18:47:41.405Z,24.54
2023-08-11T18:50:11.425Z,24.51
2023-08-11T18:52:41.006Z,24.49
2023-08-11T18:55:11.478Z,24.49
2023-08-11T18:57:41.076Z,24.48
2023-08-11T19:00:13.929Z,24.44
2023-08-11T19:02:46.432Z,24.45
2023-08-11T19:05:16.150Z,24.44
2023-08-11T19:07:45.698Z,24.41
2023-08-11T19:10:15.768Z,24.39
2023-08-11T19:12:45.382Z,24.35
2023-08-11T19:15:14.982Z,24.31
2023-08-11T19:17:47.245Z,24.26
2023-08-11T19:20:16.936Z,24.24
2023-08-11T19:22:46.546Z,24.23
2023-08-11T19:25:16.141Z,24.22
2023-08-11T19:27:45.832Z,24.25
2023-08-11T19:30:15.643Z,24.26
2023-08-11T19:32:47.781Z,24.21
2023-08-11T19:35:17.368Z,24.20
2023-08-11T19:37:47.071Z,24.20
2023-08-11T19:40:16.633Z,24.19
2023-08-11T19:42:46.244Z,24.16
2023-08-11T19:45:15.778Z,24.16
2023-08-11T19:47:48.004Z,24.14
2023-08-11T19:50:17.430Z,24.12
2023-08-11T19:52:46.971Z,24.10
2023-08-11T19:55:16.556Z,24.08
2023-08-11T19:57:46.108Z,24.05
2023-08-11T20:00:17.049Z,24.04
2023-08-11T20:02:51.234Z,24.02
2023-08-11T20:05:20.886Z,23.99
2023-08-11T20:07:50.549Z,23.96
2023-08-11T20:10:20.901Z,23.95
2023-08-11T20:12:51.162Z,23.90
2023-08-11T20:15:21.336Z,23.88
2023-08-11T20:17:53.571Z,23.85
2023-08-11T20:20:23.110Z,23.84
2023-08-11T20:22:52.692Z,23.79
2023-08-11T20:25:22.290Z,23.75
2023-08-11T20:27:51.983Z,23.74
2023-08-11T20:30:21.690Z,23.69
2023-08-11T20:32:54.204Z,23.67
2023-08-11T20:35:23.783Z,23.66
2023-08-11T20:37:50.995Z,23.63
2023-08-11T20:40:20.591Z,23.61
2023-08-11T20:42:50.148Z,23.63
2023-08-11T20:45:19.883Z,23.58
2023-08-11T20:47:49.518Z,23.54
2023-08-11T20:50:22.028Z,23.52
2023-08-11T20:52:51.761Z,23.50
2023-08-11T20:55:21.702Z,23.45
2023-08-11T20:57:52.161Z,23.47
2023-08-11T21:00:21.777Z,23.45
2023-08-11T21:02:51.332Z,23.43
2023-08-11T21:05:23.565Z,23.42
2023-08-11T21:07:53.134Z,23.42
2023-08-11T21:10:23.017Z,23.38
2023-08-11T21:12:52.594Z,23.33
2023-08-11T21:15:22.528Z,23.26
2023-08-11T21:17:54.222Z,23.29
2023-08-11T21:20:26.534Z,23.31
2023-08-11T21:22:56.254Z,23.26
2023-08-11T21:25:25.868Z,23.23
2023-08-11T21:27:55.532Z,23.19
2023-08-11T21:30:25.125Z,23.15
2023-08-11T21:32:54.759Z,23.12
2023-08-11T21:35:26.979Z,23.09
2023-08-11T21:37:56.676Z,23.03
2023-08-11T21:40:26.357Z,23.00
2023-08-11T21:42:55.981Z,22.97
2023-08-11T21:45:25.654Z,23.01
2023-08-11T21:47:55.415Z,23.00
2023-08-11T21:50:27.694Z,22.97
2023-08-11T21:52:59.777Z,22.97
2023-08-11T21:55:33.602Z,22.95
2023-08-11T21:58:04.566Z,22.98
2023-08-11T22:00:37.077Z,22.96
2023-08-11T22:03:07.291Z,22.94
2023-08-11T22:05:39.538Z,22.88
2023-08-11T22:08:09.380Z,22.83
2023-08-11T22:10:39.412Z,22.84
2023-08-11T22:13:09.412Z,22.80
2023-08-11T22:15:39.049Z,22.77
2023-08-11T22:18:08.819Z,22.72
2023-08-11T22:20:41.108Z,22.71
2023-08-11T22:23:10.789Z,22.67
2023-08-11T22:25:40.406Z,22.77
2023-08-11T22:28:10.013Z,22.65
2023-08-11T22:30:40.048Z,22.57
2023-08-11T22:33:11.318Z,22.56
2023-08-11T22:35:45.059Z,22.58
2023-08-11T22:38:15.254Z,22.57
2023-08-11T22:40:44.927Z,22.54
2023-08-11T22:43:14.762Z,22.48
2023-08-11T22:45:44.500Z,22.50
2023-08-11T22:48:14.161Z,22.52
2023-08-11T22:50:46.361Z,22.46
2023-08-11T22:53:15.932Z,22.46
2023-08-11T22:55:45.495Z,22.39
2023-08-11T22:58:15.309Z,22.42
2023-08-11T23:00:45.022Z,22.34
2023-08-11T23:03:14.639Z,22.30
2023-08-11T23:05:46.998Z,22.28
2023-08-11T23:08:16.664Z,22.32
2023-08-11T23:10:46.288Z,22.27
2023-08-11T23:13:16.353Z,22.25
2023-08-11T23:15:45.981Z,22.25
2023-08-11T23:18:15.594Z,22.22
2023-08-11T23:20:47.708Z,22.21
2023-08-11T23:23:17.334Z,22.18
2023-08-11T23:25:46.889Z,22.14
2023-08-11T23:28:16.503Z,22.12
2023-08-11T23:30:46.059Z,22.06
2023-08-11T23:33:16.490Z,22.06
2023-08-11T23:35:48.732Z,22.05
2023-08-11T23:38:18.887Z,22.04
2023-08-11T23:40:48.473Z,22.05
2023-08-11T23:43:18.759Z,22.09
2023-08-11T23:45:48.380Z,22.06
2023-08-11T23:48:18.487Z,22.09
2023-08-11T23:50:50.838Z,22.04
2023-08-11T23:53:20.404Z,21.95
2023-08-11T23:55:50.253Z,21.90
2023-08-11T23:58:19.875Z,21.85
